createdAt,value
2022-11-13T00:10:39.984Z,7.9
2022-11-13T00:16:36.974Z,7.8
2022-11-13T00:48:01.088Z,7.8
2022-11-13T00:54:08.569Z,7.8
2022-11-13T01:00:00.894Z,7.7
2022-11-13T01:05:51.536Z,7.7
2022-11-13T01:11:50.318Z,7.6
2022-11-13T01:17:56.086Z,7.7
2022-11-13T01:23:58.451Z,7.7
2022-11-13T01:29:54.069Z,7.4
2022-11-13T01:35:55.585Z,7.5
2022-11-13T01:41:48.056Z,7.4
2022-11-13T01:47:44.249Z,7.3
2022-11-13T01:53:37.551Z,7.2
2022-11-13T01:59:34.715Z,7.2
2022-11-13T02:05:30.135Z,7.1
2022-11-13T02:11:27.588Z,7
2022-11-13T02:17:19.683Z,7.2
2022-11-13T02:23:27.440Z,7.2
2022-11-13T02:29:36.455Z,7.3
2022-11-13T02:35:43.075Z,7.1
2022-11-13T02:41:40.441Z,7
2022-11-13T02:47:34.387Z,6.9
2022-11-13T02:53:31.301Z,6.9
2022-11-13T02:59:28.067Z,6.9
2022-11-13T03:05:18.537Z,6.9
2022-11-13T03:11:11.400Z,6.8
2022-11-13T03:17:04.706Z,6.9
2022-11-13T03:23:05.252Z,7
2022-11-13T03:29:06.567Z,6.9
2022-11-13T03:35:04.363Z,6.9
2022-11-13T03:40:54.718Z,6.8
2022-11-13T03:46:45.513Z,6.8
2022-11-13T03:52:37.992Z,6.8
2022-11-13T03:58:30.162Z,6.7
2022-11-13T04:04:36.790Z,6.7
2022-11-13T04:10:31.069Z,6.6
2022-11-13T04:16:23.172Z,6.6
2022-11-13T04:22:15.169Z,6.1
2022-11-13T04:28:06.446Z,6.3
2022-11-13T04:33:59.598Z,6.3
2022-11-13T04:39:51.219Z,6.1
2022-11-13T04:45:48.646Z,6
2022-11-13T04:51:41.976Z,6.2
2022-11-13T04:57:36.332Z,6
2022-11-13T05:03:29.896Z,6.1
2022-11-13T05:09:25.084Z,5.8
2022-11-13T05:15:18.639Z,5.9
2022-11-13T05:21:20.541Z,5.9
2022-11-13T05:27:18.036Z,5.6
2022-11-13T05:33:23.310Z,5.7
2022-11-13T05:39:22.014Z,5.7
2022-11-13T05:45:35.827Z,5.7
2022-11-13T05:51:29.224Z,5.6
2022-11-13T05:57:29.818Z,5.6
2022-11-13T06:03:23.233Z,5.7
2022-11-13T06:10:24.966Z,5.4
2022-11-13T06:16:18.442Z,5.4
2022-11-13T06:22:24.006Z,5.4
2022-11-13T06:28:22.890Z,5.4
2022-11-13T06:34:27.632Z,5.4
2022-11-13T06:40:25.513Z,5.2
2022-11-13T06:46:15.213Z,5.2
2022-11-13T06:52:06.802Z,5.2
2022-11-13T06:57:59.618Z,5.3
2022-11-13T07:03:49.891Z,5.3
2022-11-13T07:09:53.890Z,5.2
2022-11-13T07:15:45.854Z,5.2
2022-11-13T12:45:34.660Z,12.8
2022-11-13T12:51:54.711Z,12.9
2022-11-13T13:10:42.656Z,13.2
2022-11-13T13:16:40.016Z,13.4
2022-11-13T13:22:31.166Z,13.4
2022-11-13T14:13:07.346Z,13.9
2022-11-13T14:18:59.342Z,13.9
2022-11-13T14:24:50.271Z,13.7
2022-11-13T14:30:41.025Z,13.8
2022-11-13T14:36:30.834Z,13.8
2022-11-13T14:42:22.144Z,13.7
2022-11-13T14:48:12.502Z,13.5
2022-11-13T14:54:07.753Z,13.4
2022-11-13T14:59:58.746Z,13.4
2022-11-13T15:05:49.753Z,13.1
2022-11-13T15:11:40.590Z,13
2022-11-13T15:17:30.945Z,12.8
2022-11-13T15:23:21.390Z,12.6
2022-11-13T15:29:13.396Z,12.4
2022-11-13T15:35:04.324Z,12.1
2022-11-13T15:40:54.727Z,11.7
2022-11-13T15:46:44.511Z,11.4
2022-11-13T15:52:35.038Z,11.3
2022-11-13T15:58:24.886Z,11
2022-11-13T16:04:22.385Z,10.6
2022-11-13T16:10:41.152Z,10.5
2022-11-13T16:16:31.114Z,10.3
2022-11-13T16:22:21.697Z,10.2
2022-11-13T16:28:12.410Z,10
2022-11-13T16:34:02.979Z,9.6
2022-11-13T16:39:55.424Z,9.6
2022-11-13T16:45:46.307Z,9.5
2022-11-13T16:51:37.114Z,9.3
2022-11-13T16:57:27.261Z,8.9
2022-11-13T17:03:17.455Z,9
2022-11-13T17:09:07.510Z,8.7
2022-11-13T17:14:58.204Z,8.5
2022-11-13T17:20:49.112Z,8.6
2022-11-13T17:26:39.597Z,8.6
2022-11-13T17:32:30.092Z,8.3
2022-11-13T17:38:20.301Z,8.3
2022-11-13T17:44:10.391Z,8.4
2022-11-13T17:50:05.792Z,8.4
2022-11-13T17:55:57.265Z,8.2
2022-11-13T18:01:49.217Z,7.7
2022-11-13T18:07:40.266Z,7.8
2022-11-13T18:13:31.377Z,7.6
2022-11-13T18:19:23.296Z,7.7
2022-11-13T18:25:15.093Z,7.4
2022-11-13T18:31:04.834Z,7.6
2022-11-13T18:36:55.155Z,7.4
2022-11-13T18:42:45.820Z,7.3
2022-11-13T18:48:36.123Z,7.2
2022-11-13T18:54:26.004Z,7.2
2022-11-13T19:00:16.736Z,7.3
2022-11-13T19:06:05.641Z,7.2
2022-11-13T19:11:56.070Z,7
2022-11-13T19:17:50.351Z,6.8
2022-11-13T19:23:42.846Z,7
2022-11-13T19:29:33.310Z,6.8
2022-11-13T19:35:24.211Z,6.7
2022-11-13T19:41:15.356Z,6.5
2022-11-13T19:47:06.618Z,6.5
2022-11-13T19:52:57.646Z,6.2
2022-11-13T19:58:48.572Z,6.3
2022-11-13T20:04:39.224Z,6.3
2022-11-13T20:10:30.506Z,6.4
2022-11-13T20:16:21.643Z,6.3
2022-11-13T20:22:11.505Z,6.2
2022-11-13T20:28:01.955Z,6
2022-11-13T20:33:52.268Z,5.9
2022-11-13T20:39:42.933Z,5.9
2022-11-13T20:45:34.212Z,5.9
2022-11-13T20:51:25.135Z,5.7
2022-11-13T20:57:15.854Z,5.5
2022-11-13T21:03:07.431Z,5.8
2022-11-13T21:09:03.251Z,5.7
2022-11-13T21:14:53.405Z,5.8
2022-11-13T21:20:44.004Z,5.6
2022-11-13T21:26:33.802Z,5.7
2022-11-13T21:32:24.239Z,5.3
2022-11-13T21:38:15.275Z,5.3
2022-11-13T21:44:06.055Z,5.4
2022-11-13T21:49:58.208Z,5.6
2022-11-13T21:55:48.930Z,5.4
2022-11-13T22:01:40.991Z,5.1
2022-11-13T22:07:32.236Z,5.3
2022-11-13T22:13:23.436Z,5
2022-11-13T22:19:15.398Z,5.3
2022-11-13T22:25:20.797Z,4.9
2022-11-13T22:31:11.733Z,5
2022-11-13T22:37:02.205Z,4.7
2022-11-13T22:42:53.062Z,4.6
2022-11-13T22:48:51.731Z,4.7
2022-11-13T22:54:43.160Z,4.9
2022-11-13T23:00:34.268Z,5
2022-11-13T23:06:25.034Z,4.7
2022-11-13T23:12:16.700Z,4.8
2022-11-13T23:18:09.882Z,4.6
2022-11-13T23:24:01.318Z,4.6
2022-11-13T23:29:54.433Z,4.8
2022-11-13T23:35:45.101Z,4.6
2022-11-13T23:41:36.023Z,4.5
2022-11-13T23:47:27.565Z,4.4
2022-11-13T23:53:17.715Z,4.2
2022-11-13T23:59:08.339Z,4.3
